Time;durP1;ratioP1;P1;durP2;ratioP2;P2;SDS_P1;SDS_P2;PMS_P1;PMS_P2;Temp;Humidity;BMP_temperature;BMP_pressure;BME280_temperature;BME280_humidity;BME280_pressure;Samples;Min_cycle;Max_cycle;Signal;HPM_P1;HPM_P2
2022/02/09 00:10:03;;;;;;;8.15;3.63;;;;;;;;;;4985954;28;20037;-86
2022/02/09 00:12:38;;;;;;;4.97;2.97;;;;;;;;;;4992921;28;20030;-83
2022/02/09 00:23:38;;;;;;;4.18;2.10;;;;;;;;;;4981550;28;20057;-81
2022/02/09 00:34:32;;;;;;;2.67;1.85;;;;;;;;;;4985390;28;20033;-85
2022/02/09 00:38:12;;;;;;;4.97;2.35;;;;;;;;;;4990831;28;20160;-86
2022/02/09 00:40:06;;;;;;;6.00;3.13;;;;;;;;;;4984117;28;20426;-87
2022/02/09 00:43:01;;;;;;;5.50;3.65;;;;;;;;;;4992190;28;20483;-82
2022/02/09 01:39:56;;;;;;;6.38;5.20;;;;;;;;;;4990181;28;20097;-88
2022/02/09 01:56:19;;;;;;;9.45;5.03;;;;;;;;;;4990354;28;20042;-80
2022/02/09 01:58:46;;;;;;;7.65;4.80;;;;;;;;;;4988815;28;20057;-82
2022/02/09 02:01:11;;;;;;;5.93;4.80;;;;;;;;;;4988993;28;20027;-83
2022/02/09 02:03:36;;;;;;;5.95;4.93;;;;;;;;;;4991996;28;20038;-83
2022/02/09 02:06:02;;;;;;;6.13;4.32;;;;;;;;;;4989966;28;20391;-84
2022/02/09 02:08:28;;;;;;;6.75;4.30;;;;;;;;;;4985837;28;20018;-82
2022/02/09 02:11:15;;;;;;;5.75;4.28;;;;;;;;;;4982805;28;20042;-83
2022/02/09 02:16:24;;;;;;;8.48;4.70;;;;;;;;;;4987740;28;20066;-83
2022/02/09 02:18:57;;;;;;;6.20;4.22;;;;;;;;;;4990899;28;20111;-83
2022/02/09 02:24:21;;;;;;;7.07;4.35;;;;;;;;;;4987259;28;20133;-83
2022/02/09 02:42:50;;;;;;;5.32;3.78;;;;;;;;;;4986312;28;20018;-80
2022/02/09 02:56:57;;;;;;;4.95;3.67;;;;;;;;;;4992638;28;20037;-80
2022/02/09 02:58:47;;;;;;;7.15;4.43;;;;;;;;;;4989170;28;20073;-86
2022/02/09 03:14:20;;;;;;;7.40;5.38;;;;;;;;;;4983062;28;20081;-87
2022/02/09 03:16:57;;;;;;;8.13;5.80;;;;;;;;;;4990545;28;20522;-88
2022/02/09 03:19:42;;;;;;;6.78;5.40;;;;;;;;;;4990457;28;20039;-82
2022/02/09 03:22:21;;;;;;;7.13;5.60;;;;;;;;;;4988967;28;20050;-81
2022/02/09 03:48:58;;;;;;;8.38;6.38;;;;;;;;;;4990011;28;20399;-86
2022/02/09 03:54:17;;;;;;;9.45;6.50;;;;;;;;;;4988058;28;20033;-83
2022/02/09 03:57:01;;;;;;;8.43;6.95;;;;;;;;;;4987866;28;20335;-83
2022/02/09 03:59:30;;;;;;;8.63;6.82;;;;;;;;;;4987884;28;20019;-81
2022/02/09 04:01:56;;;;;;;10.05;7.50;;;;;;;;;;4994806;28;20080;-81
2022/02/09 04:04:21;;;;;;;8.35;6.45;;;;;;;;;;4988368;28;20034;-81
2022/02/09 04:06:50;;;;;;;8.63;6.40;;;;;;;;;;4983181;28;20041;-83
2022/02/09 04:09:18;;;;;;;8.85;7.00;;;;;;;;;;4987142;28;20023;-81
2022/02/09 04:14:37;;;;;;;9.45;7.28;;;;;;;;;;4994069;28;20049;-86
2022/02/09 04:17:22;;;;;;;9.35;7.53;;;;;;;;;;5000205;28;20487;-88
2022/02/09 04:39:10;;;;;;;10.57;8.27;;;;;;;;;;4992485;28;20022;-83
2022/02/09 04:49:40;;;;;;;11.35;8.80;;;;;;;;;;4994619;28;20026;-88
2022/02/09 04:52:24;;;;;;;10.80;8.85;;;;;;;;;;4994079;28;20026;-80
2022/02/09 04:54:57;;;;;;;10.25;8.57;;;;;;;;;;4993050;28;20121;-83
2022/02/09 05:24:04;;;;;;;9.82;8.13;;;;;;;;;;4990592;28;20057;-81
2022/02/09 05:26:49;;;;;;;9.63;7.40;;;;;;;;;;4998505;28;20475;-86
2022/02/09 05:29:14;;;;;;;9.55;6.93;;;;;;;;;;4992120;28;20447;-80
2022/02/09 05:31:40;;;;;;;9.13;6.72;;;;;;;;;;4995911;28;20109;-86
2022/02/09 05:34:08;;;;;;;8.50;6.97;;;;;;;;;;4993647;28;20116;-85
2022/02/09 05:36:34;;;;;;;10.13;7.68;;;;;;;;;;5003006;28;20064;-80
2022/02/09 05:39:00;;;;;;;8.15;6.60;;;;;;;;;;4993057;28;20065;-86
2022/02/09 05:41:25;;;;;;;8.32;6.50;;;;;;;;;;4986099;28;20105;-83
2022/02/09 05:43:51;;;;;;;8.38;6.30;;;;;;;;;;4985864;28;20080;-86
2022/02/09 05:51:46;;;;;;;8.40;6.50;;;;;;;;;;4992104;28;21498;-81
2022/02/09 06:01:30;;;;;;;7.85;6.20;;;;;;;;;;4990450;28;20380;-81
2022/02/09 06:03:55;;;;;;;7.20;5.88;;;;;;;;;;4991104;28;20034;-86
2022/02/09 06:06:20;;;;;;;8.82;6.82;;;;;;;;;;4987916;28;20033;-83
2022/02/09 06:08:46;;;;;;;7.60;6.45;;;;;;;;;;4984275;28;20419;-81
2022/02/09 06:11:42;;;;;;;8.98;6.40;;;;;;;;;;4988455;28;20537;-87
2022/02/09 06:14:33;;;;;;;9.32;6.43;;;;;;;;;;4990109;28;20073;-83
2022/02/09 06:22:08;;;;;;;8.32;5.82;;;;;;;;;;4992501;28;20136;-83
2022/02/09 06:24:34;;;;;;;7.30;5.53;;;;;;;;;;4988642;28;20063;-86
2022/02/09 06:27:00;;;;;;;7.22;5.53;;;;;;;;;;4986654;28;20033;-87
2022/02/09 06:29:25;;;;;;;7.57;5.70;;;;;;;;;;4994384;28;20463;-88
2022/02/09 06:31:52;;;;;;;8.07;5.95;;;;;;;;;;4991903;28;20117;-87
2022/02/09 06:34:20;;;;;;;9.23;6.63;;;;;;;;;;4989710;28;20026;-80
2022/02/09 06:36:59;;;;;;;7.20;5.90;;;;;;;;;;4994674;28;20126;-87
2022/02/09 06:39:26;;;;;;;7.43;5.60;;;;;;;;;;4994921;28;20040;-81
2022/02/09 06:41:51;;;;;;;7.15;5.50;;;;;;;;;;4994555;28;20058;-81
2022/02/09 06:44:19;;;;;;;6.60;5.10;;;;;;;;;;4987924;28;20030;-85
2022/02/09 06:46:46;;;;;;;7.05;5.53;;;;;;;;;;4985429;28;20389;-81
2022/02/09 06:49:21;;;;;;;7.38;4.97;;;;;;;;;;4986592;28;20531;-80
2022/02/09 06:51:47;;;;;;;6.15;4.80;;;;;;;;;;4987138;28;20038;-88
2022/02/09 06:54:16;;;;;;;6.60;4.93;;;;;;;;;;4982330;28;20088;-81
2022/02/09 06:59:28;;;;;;;6.60;4.78;;;;;;;;;;4987960;28;20019;-83
2022/02/09 07:01:53;;;;;;;6.72;5.38;;;;;;;;;;4982549;28;20037;-81
2022/02/09 07:04:19;;;;;;;7.22;4.93;;;;;;;;;;4994868;28;20749;-82
2022/02/09 07:06:44;;;;;;;7.07;5.20;;;;;;;;;;4991207;28;20501;-86
2022/02/09 07:09:09;;;;;;;8.32;5.07;;;;;;;;;;4989266;28;20032;-83
2022/02/09 07:11:35;;;;;;;7.47;5.60;;;;;;;;;;4992660;28;20057;-83
2022/02/09 07:14:00;;;;;;;7.20;5.07;;;;;;;;;;4981862;28;20034;-80
2022/02/09 07:16:26;;;;;;;6.80;5.28;;;;;;;;;;4989831;28;20543;-80
2022/02/09 07:18:52;;;;;;;6.88;5.45;;;;;;;;;;4987800;28;20061;-85
2022/02/09 07:21:23;;;;;;;8.95;5.57;;;;;;;;;;4990221;28;20050;-86
2022/02/09 07:23:51;;;;;;;8.88;6.10;;;;;;;;;;4989115;28;20054;-80
2022/02/09 07:26:21;;;;;;;8.68;6.53;;;;;;;;;;4986172;28;20462;-87
2022/02/09 07:28:47;;;;;;;10.88;6.57;;;;;;;;;;4984396;28;20398;-86
2022/02/09 07:31:13;;;;;;;8.43;6.53;;;;;;;;;;4989037;28;20037;-81
2022/02/09 07:33:41;;;;;;;10.05;7.20;;;;;;;;;;4993431;28;20041;-85
2022/02/09 07:36:08;;;;;;;8.70;6.60;;;;;;;;;;4986720;28;20417;-88
2022/02/09 07:38:34;;;;;;;9.70;6.75;;;;;;;;;;4985163;28;20120;-80
2022/02/09 07:41:01;;;;;;;11.25;6.95;;;;;;;;;;4985547;28;20029;-86
2022/02/09 07:43:40;;;;;;;10.52;7.28;;;;;;;;;;4985739;28;20022;-86
2022/02/09 07:51:27;;;;;;;9.75;7.40;;;;;;;;;;4977712;28;20043;-80
2022/02/09 07:54:02;;;;;;;10.30;7.47;;;;;;;;;;4984815;28;20050;-80
2022/02/09 07:56:35;;;;;;;11.90;7.78;;;;;;;;;;4985341;28;20036;-81
2022/02/09 07:59:02;;;;;;;9.95;7.82;;;;;;;;;;4977564;28;20027;-85
2022/02/09 08:01:28;;;;;;;11.80;8.35;;;;;;;;;;4981943;28;20053;-84
2022/02/09 08:03:53;;;;;;;10.45;8.30;;;;;;;;;;4982189;28;20703;-86
2022/02/09 08:06:24;;;;;;;12.27;9.23;;;;;;;;;;4982220;28;20539;-80
2022/02/09 08:08:55;;;;;;;13.13;9.63;;;;;;;;;;4989710;28;20018;-87
2022/02/09 08:11:32;;;;;;;13.18;9.30;;;;;;;;;;4987450;28;20085;-80
2022/02/09 08:27:42;;;;;;;;;;;;;;;;;;4982961;28;20041;-83
2022/02/09 08:32:51;;;;;;;12.60;9.18;;;;;;;;;;4987266;28;20053;-88
2022/02/09 08:35:16;;;;;;;12.60;9.48;;;;;;;;;;4989479;28;20027;-87
2022/02/09 08:37:42;;;;;;;13.23;9.63;;;;;;;;;;4986538;28;20037;-82
2022/02/09 08:40:11;;;;;;;12.68;9.23;;;;;;;;;;4989744;28;20026;-85
2022/02/09 08:42:38;;;;;;;11.25;8.48;;;;;;;;;;5000224;28;20030;-88
2022/02/09 08:45:06;;;;;;;12.20;9.13;;;;;;;;;;4987357;28;20030;-86
2022/02/09 08:47:31;;;;;;;12.88;8.40;;;;;;;;;;4985798;28;20490;-87
2022/02/09 08:49:57;;;;;;;11.38;8.80;;;;;;;;;;4984453;28;20035;-88
2022/02/09 08:52:22;;;;;;;13.40;8.48;;;;;;;;;;4992292;28;20034;-81
2022/02/09 08:54:50;;;;;;;10.48;7.72;;;;;;;;;;4983879;28;20034;-87
2022/02/09 08:57:15;;;;;;;11.55;7.82;;;;;;;;;;4999422;28;20025;-83
2022/02/09 08:59:41;;;;;;;12.18;7.50;;;;;;;;;;4989092;28;20062;-81
2022/02/09 09:02:10;;;;;;;10.95;7.78;;;;;;;;;;4995875;28;20062;-87
2022/02/09 09:04:42;;;;;;;12.80;7.35;;;;;;;;;;4987600;28;20031;-80
2022/02/09 09:07:14;;;;;;;11.95;7.85;;;;;;;;;;4995801;28;20482;-83
2022/02/09 09:18:33;;;;;;;10.75;7.72;;;;;;;;;;4992196;28;20035;-86
2022/02/09 09:58:03;;;;;;;13.55;8.45;;;;;;;;;;4987593;28;20106;-87
2022/02/09 10:02:03;;;;;;;12.55;9.20;;;;;;;;;;4985570;28;20058;-87
2022/02/09 10:33:08;;;;;;;15.20;8.80;;;;;;;;;;4987499;28;20037;-86
2022/02/09 10:35:38;;;;;;;15.20;9.50;;;;;;;;;;4985718;28;20525;-80
2022/02/09 10:38:23;;;;;;;11.52;8.23;;;;;;;;;;4988030;28;20034;-88
2022/02/09 10:40:52;;;;;;;13.30;8.70;;;;;;;;;;5001919;28;20494;-83
2022/02/09 10:43:30;;;;;;;11.18;8.02;;;;;;;;;;4984406;28;20518;-85
2022/02/09 10:46:10;;;;;;;12.13;8.02;;;;;;;;;;4991806;28;20230;-80
2022/02/09 10:48:45;;;;;;;12.80;8.23;;;;;;;;;;4983905;28;20034;-83
2022/02/09 10:51:30;;;;;;;12.02;8.38;;;;;;;;;;4985149;28;20571;-83
2022/02/09 10:54:18;;;;;;;12.63;8.18;;;;;;;;;;4981871;28;20030;-87
2022/02/09 10:56:46;;;;;;;12.25;8.63;;;;;;;;;;4985165;28;20116;-80
2022/02/09 10:59:14;;;;;;;11.90;7.88;;;;;;;;;;4987996;28;20022;-88
2022/02/09 11:01:41;;;;;;;10.77;8.02;;;;;;;;;;4988639;28;20034;-83
2022/02/09 11:04:07;;;;;;;11.52;8.68;;;;;;;;;;4988873;28;20380;-85
2022/02/09 11:06:43;;;;;;;11.45;8.05;;;;;;;;;;4999390;28;20265;-80
2022/02/09 11:09:12;;;;;;;11.90;7.97;;;;;;;;;;4983407;28;20530;-83
2022/02/09 11:11:41;;;;;;;11.15;8.05;;;;;;;;;;4984899;28;20065;-83
2022/02/09 11:14:11;;;;;;;11.68;8.18;;;;;;;;;;4989903;28;20406;-82
2022/02/09 11:16:37;;;;;;;14.05;9.02;;;;;;;;;;4981063;28;20041;-85
2022/02/09 11:19:03;;;;;;;15.18;8.45;;;;;;;;;;4986274;28;20038;-83
2022/02/09 11:21:32;;;;;;;12.00;8.25;;;;;;;;;;4981435;28;20022;-81
2022/02/09 11:24:06;;;;;;;12.55;8.30;;;;;;;;;;4987671;28;20066;-87
2022/02/09 11:26:46;;;;;;;12.02;8.25;;;;;;;;;;4981328;28;20038;-82
2022/02/09 11:32:31;;;;;;;10.65;7.85;;;;;;;;;;4983687;28;20026;-80
2022/02/09 11:35:17;;;;;;;10.85;7.95;;;;;;;;;;4981403;28;20072;-85
2022/02/09 11:37:48;;;;;;;9.90;7.60;;;;;;;;;;4981688;28;20031;-85
2022/02/09 11:41:03;;;;;;;11.82;7.50;;;;;;;;;;4981012;28;20037;-85
2022/02/09 11:43:36;;;;;;;11.68;7.18;;;;;;;;;;4978355;28;20070;-80
2022/02/09 12:11:10;;;;;;;10.30;7.40;;;;;;;;;;4988281;28;20040;-88
2022/02/09 12:14:04;;;;;;;14.10;7.30;;;;;;;;;;4984894;28;20022;-85
2022/02/09 12:19:47;;;;;;;12.30;8.43;;;;;;;;;;4932653;28;20526;-85
2022/02/09 12:22:20;;;;;;;10.93;7.93;;;;;;;;;;4984388;28;20145;-83
2022/02/09 12:24:46;;;;;;;12.75;9.20;;;;;;;;;;4983445;28;20483;-85
2022/02/09 12:27:16;;;;;;;11.07;8.65;;;;;;;;;;4998956;28;20479;-87
2022/02/09 12:29:44;;;;;;;12.23;9.20;;;;;;;;;;4982853;28;20044;-83
2022/02/09 12:32:15;;;;;;;12.57;9.07;;;;;;;;;;4992871;28;20030;-88
2022/02/09 12:34:44;;;;;;;12.50;8.85;;;;;;;;;;4986213;28;20493;-82
2022/02/09 12:37:11;;;;;;;11.68;8.95;;;;;;;;;;4986087;28;20464;-87
2022/02/09 12:39:53;;;;;;;13.43;9.77;;;;;;;;;;4993077;28;20026;-83
2022/02/09 12:42:19;;;;;;;12.60;8.80;;;;;;;;;;5003431;28;20049;-85
2022/02/09 12:45:24;;;;;;;14.75;10.10;;;;;;;;;;4990422;28;20030;-80
2022/02/09 12:47:53;;;;;;;11.70;8.98;;;;;;;;;;4990411;28;20066;-83
2022/02/09 12:50:22;;;;;;;12.52;9.15;;;;;;;;;;4991353;28;20026;-85
2022/02/09 12:52:49;;;;;;;12.00;9.50;;;;;;;;;;5003538;28;20030;-80
2022/02/09 12:55:17;;;;;;;13.90;10.48;;;;;;;;;;4984366;28;20022;-82
2022/02/09 12:57:51;;;;;;;17.48;11.18;;;;;;;;;;5003971;28;20034;-85
2022/02/09 13:00:33;;;;;;;13.80;10.98;;;;;;;;;;4989632;28;20026;-83
2022/02/09 13:03:10;;;;;;;14.90;10.95;;;;;;;;;;4985257;28;20034;-81
2022/02/09 13:05:49;;;;;;;16.33;10.70;;;;;;;;;;4983941;28;20109;-80
2022/02/09 13:08:26;;;;;;;13.98;10.07;;;;;;;;;;5003021;28;20038;-86
2022/02/09 13:11:14;;;;;;;15.30;10.68;;;;;;;;;;4986957;28;20113;-80
2022/02/09 13:13:43;;;;;;;13.75;10.65;;;;;;;;;;4983763;28;20563;-82
2022/02/09 13:16:28;;;;;;;14.95;11.05;;;;;;;;;;4978892;28;20049;-80
2022/02/09 14:03:43;;;;;;;14.48;11.18;;;;;;;;;;4983535;28;20037;-81
2022/02/09 14:06:57;;;;;;;15.45;11.10;;;;;;;;;;4985656;28;20034;-80
2022/02/09 14:11:58;;;;;;;17.55;11.20;;;;;;;;;;4982960;28;20069;-80
2022/02/09 14:17:20;;;;;;;18.30;11.30;;;;;;;;;;4983734;28;20053;-80
2022/02/09 14:34:44;;;;;;;11.75;8.85;;;;;;;;;;4981842;28;20055;-82
2022/02/09 14:58:03;;;;;;;13.85;10.20;;;;;;;;;;4983315;28;20518;-85
2022/02/09 15:00:30;;;;;;;12.13;9.57;;;;;;;;;;4977480;28;20040;-81
2022/02/09 15:06:09;;;;;;;13.63;9.68;;;;;;;;;;4982677;28;20100;-80
2022/02/09 15:09:37;;;;;;;13.40;9.55;;;;;;;;;;4980953;28;20557;-82
2022/02/09 15:14:05;;;;;;;13.13;9.27;;;;;;;;;;4986956;28;20038;-81
2022/02/09 15:19:39;;;;;;;13.15;9.02;;;;;;;;;;4983855;28;20034;-82
2022/02/09 15:22:07;;;;;;;14.00;9.35;;;;;;;;;;4988786;28;20058;-83
2022/02/09 15:24:40;;;;;;;14.57;9.35;;;;;;;;;;4975830;28;20048;-85
2022/02/09 15:27:10;;;;;;;15.23;9.57;;;;;;;;;;4980378;28;20049;-84
2022/02/09 15:29:37;;;;;;;11.23;8.70;;;;;;;;;;4998849;28;20062;-81
2022/02/09 15:32:07;;;;;;;11.48;8.48;;;;;;;;;;4984993;28;20761;-81
2022/02/09 15:34:44;;;;;;;11.73;8.18;;;;;;;;;;4981023;28;20480;-82
2022/02/09 15:37:18;;;;;;;11.90;8.50;;;;;;;;;;4979953;28;20050;-80
2022/02/09 15:39:56;;;;;;;14.98;8.38;;;;;;;;;;4980449;28;20042;-83
2022/02/09 16:09:46;;;;;;;11.82;8.32;;;;;;;;;;4988158;28;20081;-83
2022/02/09 16:16:36;;;;;;;11.55;8.55;;;;;;;;;;4996292;28;20018;-79
2022/02/09 16:23:45;;;;;;;12.30;9.13;;;;;;;;;;4983864;28;20049;-79
2022/02/09 16:45:04;;;;;;;14.20;10.23;;;;;;;;;;4988625;28;20096;-81
2022/02/09 16:47:49;;;;;;;13.38;9.30;;;;;;;;;;4988110;28;20066;-81
2022/02/09 16:50:17;;;;;;;12.95;9.65;;;;;;;;;;4981190;28;20547;-81
2022/02/09 17:19:31;;;;;;;14.88;9.55;;;;;;;;;;4981870;28;20040;-82
2022/02/09 17:21:57;;;;;;;15.32;9.52;;;;;;;;;;4984727;28;20073;-81
2022/02/09 17:24:22;;;;;;;14.52;9.38;;;;;;;;;;4989610;28;20069;-79
2022/02/09 17:26:48;;;;;;;13.77;10.00;;;;;;;;;;4993656;28;20049;-82
2022/02/09 17:29:22;;;;;;;13.52;9.23;;;;;;;;;;4989145;28;20014;-84
2022/02/09 17:34:45;;;;;;;12.48;9.43;;;;;;;;;;4995599;28;20057;-81
2022/02/09 17:53:27;;;;;;;15.25;11.23;;;;;;;;;;4988847;28;20450;-81
2022/02/09 17:55:59;;;;;;;15.93;11.77;;;;;;;;;;5005458;28;20408;-81
2022/02/09 17:58:37;;;;;;;18.17;12.02;;;;;;;;;;4990769;28;22936;-81
2022/02/09 18:01:03;;;;;;;16.83;11.90;;;;;;;;;;4987961;28;20031;-80
2022/02/09 18:03:29;;;;;;;17.80;11.43;;;;;;;;;;4993479;28;20026;-79
2022/02/09 18:05:56;;;;;;;16.23;11.38;;;;;;;;;;4983622;28;20549;-80
2022/02/09 18:08:29;;;;;;;16.45;11.32;;;;;;;;;;4988853;28;20395;-81
2022/02/09 18:25:30;;;;;;;15.50;10.95;;;;;;;;;;4987301;28;20605;-82
2022/02/09 18:30:53;;;;;;;13.82;9.90;;;;;;;;;;4994168;28;20153;-81
2022/02/09 18:39:14;;;;;;;14.82;11.10;;;;;;;;;;4991297;28;20068;-80
2022/02/09 18:42:24;;;;;;;15.95;10.35;;;;;;;;;;4987245;28;20069;-82
2022/02/09 18:47:06;;;;;;;18.48;11.48;;;;;;;;;;4985943;28;20134;-79
2022/02/09 19:03:07;;;;;;;17.08;13.15;;;;;;;;;;4981946;28;20030;-81
2022/02/09 19:05:42;;;;;;;18.23;12.85;;;;;;;;;;4983665;28;20030;-80
2022/02/09 19:08:22;;;;;;;18.50;13.52;;;;;;;;;;4989810;28;20045;-79
2022/02/09 19:19:59;;;;;;;17.75;12.63;;;;;;;;;;4983843;28;20053;-82
2022/02/09 19:49:38;;;;;;;16.02;11.52;;;;;;;;;;4991288;28;20387;-82
2022/02/09 19:57:09;;;;;;;16.83;12.20;;;;;;;;;;4980166;28;20027;-82
2022/02/09 19:59:37;;;;;;;17.50;12.27;;;;;;;;;;4980806;28;20030;-82
2022/02/09 20:02:03;;;;;;;17.63;12.70;;;;;;;;;;4984192;28;20077;-81
2022/02/09 20:04:28;;;;;;;17.95;12.95;;;;;;;;;;4979482;28;20440;-82
2022/02/09 20:06:54;;;;;;;19.88;13.60;;;;;;;;;;4985372;28;20034;-82
2022/02/09 20:09:26;;;;;;;19.30;13.38;;;;;;;;;;4987112;28;20453;-82
2022/02/09 20:11:51;;;;;;;18.37;13.30;;;;;;;;;;4984970;28;20025;-83
2022/02/09 20:14:18;;;;;;;18.42;13.60;;;;;;;;;;4983937;28;20038;-82
2022/02/09 20:16:44;;;;;;;18.70;13.57;;;;;;;;;;4977115;28;20027;-82
2022/02/09 20:19:09;;;;;;;20.65;14.88;;;;;;;;;;4996221;28;20031;-81
2022/02/09 20:21:35;;;;;;;19.50;13.90;;;;;;;;;;4988821;28;20026;-83
2022/02/09 20:24:03;;;;;;;20.20;14.30;;;;;;;;;;4985239;28;20523;-80
2022/02/09 20:26:29;;;;;;;19.45;13.48;;;;;;;;;;4980276;28;20034;-83
2022/02/09 20:29:06;;;;;;;20.10;13.75;;;;;;;;;;4986088;28;20490;-84
2022/02/09 20:31:36;;;;;;;17.73;11.85;;;;;;;;;;4980592;28;20034;-84
2022/02/09 20:34:10;;;;;;;19.80;13.95;;;;;;;;;;4981629;28;20710;-81
2022/02/09 20:36:37;;;;;;;18.23;13.95;;;;;;;;;;4997274;28;20042;-82
2022/02/09 20:39:05;;;;;;;18.35;13.43;;;;;;;;;;4998288;28;20117;-85
2022/02/09 20:41:33;;;;;;;18.83;12.80;;;;;;;;;;4985059;28;20029;-83
2022/02/09 20:44:18;;;;;;;20.80;14.07;;;;;;;;;;4982047;28;20051;-84
2022/02/09 20:46:43;;;;;;;19.40;13.48;;;;;;;;;;4994266;28;20031;-82
2022/02/09 20:49:08;;;;;;;18.58;13.52;;;;;;;;;;4982820;28;20018;-79
2022/02/09 20:51:34;;;;;;;23.10;14.68;;;;;;;;;;4985612;28;20454;-85
2022/02/09 20:53:59;;;;;;;26.55;15.82;;;;;;;;;;4984956;28;20037;-81
2022/02/09 20:56:24;;;;;;;26.52;15.52;;;;;;;;;;4985596;28;20803;-81
2022/02/09 20:58:56;;;;;;;29.08;16.60;;;;;;;;;;4983004;28;20034;-79
2022/02/09 21:01:28;;;;;;;23.30;15.45;;;;;;;;;;4997480;28;20031;-81
2022/02/09 21:04:01;;;;;;;26.10;16.52;;;;;;;;;;4984088;28;20039;-80
2022/02/09 21:06:54;;;;;;;22.35;15.57;;;;;;;;;;4986471;28;20122;-81
2022/02/09 21:09:28;;;;;;;22.52;15.23;;;;;;;;;;4982064;28;20042;-78
2022/02/09 21:15:07;;;;;;;21.52;14.05;;;;;;;;;;4982913;28;20096;-83
2022/02/09 21:17:28;;;;;;;22.48;14.55;;;;;;;;;;4980613;28;20049;-81
2022/02/09 21:20:26;;;;;;;22.33;15.13;;;;;;;;;;4981822;28;20038;-83
2022/02/09 21:23:07;;;;;;;20.35;14.07;;;;;;;;;;4982171;28;20291;-79
2022/02/09 21:42:45;;;;;;;18.75;13.02;;;;;;;;;;4982196;28;20096;-81
2022/02/09 21:58:31;;;;;;;21.23;14.93;;;;;;;;;;4983028;28;20049;-81
2022/02/09 22:01:30;;;;;;;21.25;14.98;;;;;;;;;;4981085;28;20033;-80
2022/02/09 22:19:15;;;;;;;29.60;20.35;;;;;;;;;;4979151;28;20037;-78
2022/02/09 22:19:58;;;;;;;23.70;17.40;;;;;;;;;;4986595;28;20037;-81
2022/02/09 22:22:40;;;;;;;30.60;20.50;;;;;;;;;;4993374;28;20022;-80
2022/02/09 22:26:18;;;;;;;26.95;18.45;;;;;;;;;;4989139;28;20065;-83
2022/02/09 22:31:27;;;;;;;28.95;19.85;;;;;;;;;;4930162;29;20071;-80
2022/02/09 22:50:07;;;;;;;28.70;18.40;;;;;;;;;;4984840;28;20030;-79
2022/02/09 22:55:12;;;;;;;28.67;19.30;;;;;;;;;;4984689;28;20049;-81
2022/02/09 22:57:53;;;;;;;29.15;18.65;;;;;;;;;;4981414;28;20051;-81
2022/02/09 23:00:37;;;;;;;27.65;18.02;;;;;;;;;;4982748;28;20034;-84
2022/02/09 23:03:02;;;;;;;;;;;;;;;;;;5003517;28;20538;-84
2022/02/09 23:13:46;;;;;;;26.45;17.17;;;;;;;;;;4986382;28;20042;-81
2022/02/09 23:24:20;;;;;;;28.13;17.63;;;;;;;;;;4983679;28;20038;-81
2022/02/09 23:27:16;;;;;;;27.20;17.00;;;;;;;;;;4987568;28;20076;-82
2022/02/09 23:55:34;;;;;;;23.17;15.35;;;;;;;;;;4987021;28;20387;-85
2022/02/09 23:57:49;;;;;;;22.88;14.07;;;;;;;;;;4970412;28;20049;-83
